createdAt,value
2022-08-30T00:00:39.480Z,17.08
2022-08-30T00:04:40.173Z,15.18
2022-08-30T00:08:41.179Z,13.3
2022-08-30T00:12:40.999Z,11.3
2022-08-30T00:16:40.177Z,10.7
2022-08-30T00:20:40.916Z,10.43
2022-08-30T00:24:40.040Z,15.85
2022-08-30T00:28:41.052Z,15.35
2022-08-30T00:32:40.400Z,10.98
2022-08-30T00:36:39.893Z,15.05
2022-08-30T00:40:40.780Z,12.85
2022-08-30T00:44:40.376Z,12.9
2022-08-30T00:48:40.875Z,13.73
2022-08-30T00:52:39.397Z,12.8
2022-08-30T00:56:39.964Z,15
2022-08-30T01:00:40.407Z,12.6
2022-08-30T01:04:40.747Z,12.25
2022-08-30T01:08:41.070Z,18.5
2022-08-30T01:12:40.452Z,19.62
2022-08-30T01:16:40.666Z,17.2
2022-08-30T01:20:41.135Z,21.58
2022-08-30T01:24:39.540Z,18.08
2022-08-30T01:28:40.799Z,19.9
2022-08-30T01:32:40.353Z,18.45
2022-08-30T01:36:44.555Z,16.7
2022-08-30T01:40:41.006Z,22.52
2022-08-30T01:44:40.381Z,22.52
2022-08-30T01:48:41.161Z,21.98
2022-08-30T01:52:41.097Z,20.67
2022-08-30T01:56:39.798Z,20.52
2022-08-30T02:00:40.112Z,22.27
2022-08-30T02:04:39.726Z,33.2
2022-08-30T02:08:40.738Z,35.75
2022-08-30T02:12:40.255Z,29.05
2022-08-30T02:16:41.282Z,31.73
2022-08-30T02:20:40.607Z,28.9
2022-08-30T02:24:40.757Z,27.55
2022-08-30T02:28:42.649Z,29.87
2022-08-30T02:32:40.856Z,31.23
2022-08-30T02:36:39.766Z,34.3
2022-08-30T02:40:41.046Z,33.67
2022-08-30T02:44:41.289Z,29.45
2022-08-30T02:48:40.744Z,40.3
2022-08-30T02:52:40.326Z,31.45
2022-08-30T02:56:40.375Z,37.6
2022-08-30T03:00:40.677Z,37.58
2022-08-30T03:04:40.870Z,31.48
2022-08-30T03:08:39.862Z,39.25
2022-08-30T03:12:39.911Z,31.12
2022-08-30T03:16:40.856Z,34.35
2022-08-30T03:20:40.109Z,33.78
2022-08-30T03:24:41.297Z,34.42
2022-08-30T03:28:40.340Z,37.55
2022-08-30T03:32:39.514Z,38.05
2022-08-30T03:36:39.762Z,42.13
2022-08-30T03:40:40.933Z,39.35
2022-08-30T03:44:40.655Z,32.55
2022-08-30T03:48:39.668Z,37.85
2022-08-30T03:52:41.148Z,39.38
2022-08-30T03:56:41.169Z,34.95
2022-08-30T04:00:40.097Z,34.83
2022-08-30T04:04:39.610Z,29.37
2022-08-30T04:08:40.324Z,33.3
2022-08-30T04:12:39.318Z,34
2022-08-30T04:16:40.518Z,40.3
2022-08-30T04:20:39.414Z,44.03
2022-08-30T04:24:40.379Z,45.88
2022-08-30T04:28:40.014Z,48.25
2022-08-30T04:32:41.006Z,47.13
2022-08-30T04:36:40.194Z,43.45
2022-08-30T04:40:41.119Z,51.25
2022-08-30T04:44:39.704Z,50.63
2022-08-30T04:48:40.751Z,37.6
2022-08-30T04:52:39.335Z,53.8
2022-08-30T04:56:40.533Z,49.03
2022-08-30T05:00:41.441Z,57.85
2022-08-30T05:04:40.558Z,52.53
2022-08-30T05:08:41.230Z,101
2022-08-30T05:12:39.984Z,101.53
2022-08-30T05:16:41.033Z,221.48
2022-08-30T05:20:39.987Z,219.3
2022-08-30T05:24:39.638Z,194.85
2022-08-30T05:28:40.383Z,240.37
2022-08-30T05:32:40.258Z,278.55
2022-08-30T05:36:40.057Z,190.2
2022-08-30T05:40:40.536Z,157.23
2022-08-30T05:44:40.572Z,244.73
2022-08-30T05:48:41.279Z,145.65
2022-08-30T05:52:40.235Z,122.8
2022-08-30T05:56:40.698Z,120.35
2022-08-30T06:00:40.347Z,141.45
2022-08-30T06:04:40.477Z,119.8
2022-08-30T06:08:40.443Z,123.75
2022-08-30T06:12:39.402Z,286.55
2022-08-30T06:16:40.617Z,147.77
2022-08-30T06:20:40.129Z,116.1
2022-08-30T06:24:56.558Z,89.5
2022-08-30T06:28:41.144Z,65.1
2022-08-30T06:32:39.814Z,63.87
2022-08-30T06:36:40.617Z,58.63
2022-08-30T06:40:40.381Z,75.18
2022-08-30T06:44:39.426Z,111.72
2022-08-30T06:48:40.872Z,38.15
2022-08-30T06:52:41.214Z,42.13
2022-08-30T06:56:42.805Z,35.03
2022-08-30T07:00:41.442Z,19.73
2022-08-30T07:04:39.985Z,16.62
2022-08-30T07:08:40.756Z,57.17
2022-08-30T07:12:39.867Z,30.62
2022-08-30T07:16:40.676Z,21.7
2022-08-30T07:20:40.300Z,20.92
2022-08-30T07:24:40.764Z,21.67
2022-08-30T07:28:40.630Z,18.25
2022-08-30T07:32:40.960Z,16.67
2022-08-30T07:36:40.546Z,13.18
2022-08-30T07:40:40.095Z,14.18
2022-08-30T07:44:40.373Z,17.73
2022-08-30T07:48:40.617Z,14.9
2022-08-30T07:52:40.850Z,14.25
2022-08-30T07:56:40.930Z,12.2
2022-08-30T08:00:41.256Z,14.63
2022-08-30T08:04:40.555Z,14.27
2022-08-30T08:08:39.826Z,14.87
2022-08-30T08:12:40.746Z,14.23
2022-08-30T08:16:40.354Z,12.55
2022-08-30T08:20:41.370Z,15.77
2022-08-30T08:24:40.771Z,11.9
2022-08-30T08:28:39.563Z,15.1
2022-08-30T08:32:41.709Z,11.2
2022-08-30T08:36:39.602Z,14.2
2022-08-30T08:40:40.825Z,10.9
2022-08-30T08:44:39.783Z,10.2
2022-08-30T08:48:59.163Z,12.18
2022-08-30T08:52:40.316Z,12.45
2022-08-30T08:56:40.002Z,13.73
2022-08-30T09:00:41.162Z,12.15
2022-08-30T09:04:40.255Z,11.27
2022-08-30T09:08:41.071Z,11.32
2022-08-30T09:12:40.924Z,11.27
2022-08-30T09:16:40.244Z,12.88
2022-08-30T09:20:40.351Z,12.63
2022-08-30T09:24:40.632Z,10.43
2022-08-30T09:28:41.317Z,9.43
2022-08-30T09:32:40.801Z,8.8
2022-08-30T09:36:40.322Z,10.98
2022-08-30T09:40:40.909Z,8.8
2022-08-30T09:44:40.208Z,7.37
2022-08-30T09:48:39.666Z,9.27
2022-08-30T09:52:40.945Z,8.75
2022-08-30T09:56:40.421Z,9.9
2022-08-30T10:00:40.245Z,10.82
2022-08-30T10:04:39.782Z,10.82
2022-08-30T10:08:40.966Z,11.65
2022-08-30T10:12:40.034Z,10.23
2022-08-30T10:16:39.370Z,9.18
2022-08-30T10:20:40.545Z,8.75
2022-08-30T10:24:39.406Z,7.7
2022-08-30T10:28:40.634Z,6.45
2022-08-30T10:32:40.116Z,5.28
2022-08-30T10:36:41.331Z,5.55
2022-08-30T10:40:40.840Z,3.37
2022-08-30T10:44:39.931Z,2.85
2022-08-30T10:48:39.504Z,4.93
2022-08-30T10:52:40.609Z,2.78
2022-08-30T10:56:40.625Z,4.87
2022-08-30T11:00:40.617Z,5.47
2022-08-30T11:04:40.507Z,8.23
2022-08-30T11:08:40.875Z,4.78
2022-08-30T11:12:39.876Z,4.05
2022-08-30T11:16:40.441Z,8.82
2022-08-30T11:20:40.873Z,7.05
2022-08-30T11:24:39.619Z,2.87
2022-08-30T11:28:40.375Z,6.28
2022-08-30T11:32:40.069Z,2.17
2022-08-30T11:36:46.191Z,1.58
2022-08-30T11:40:41.242Z,4.2
2022-08-30T11:44:40.499Z,2.33
2022-08-30T11:48:54.545Z,1.48
2022-08-30T11:52:40.613Z,1.5
2022-08-30T11:56:39.634Z,2.4
2022-08-30T12:00:41.212Z,3.78
2022-08-30T12:04:40.523Z,2.58
2022-08-30T12:08:40.062Z,4.8
2022-08-30T12:12:40.718Z,2.08
2022-08-30T12:16:40.661Z,4.28
2022-08-30T12:20:41.317Z,2.45
2022-08-30T12:24:40.664Z,4.57
2022-08-30T12:28:42.178Z,2.08
2022-08-30T12:32:40.865Z,2.28
2022-08-30T12:36:40.105Z,2.1
2022-08-30T12:40:41.074Z,6.03
2022-08-30T12:44:40.437Z,2.25
2022-08-30T12:48:40.544Z,3.8
2022-08-30T12:52:40.562Z,2.7
2022-08-30T12:56:50.097Z,2.92
2022-08-30T13:00:41.082Z,2.33
2022-08-30T13:04:40.413Z,3.47
2022-08-30T13:08:40.707Z,3.08
2022-08-30T13:12:41.001Z,5.35
2022-08-30T13:16:45.093Z,6.18
2022-08-30T13:20:39.817Z,3.3
2022-08-30T13:24:40.652Z,2.83
2022-08-30T13:28:39.486Z,4.15
2022-08-30T13:32:40.775Z,3.95
2022-08-30T13:36:40.433Z,6.43
2022-08-30T13:40:40.856Z,3.42
2022-08-30T13:44:41.548Z,3.5
2022-08-30T13:48:40.856Z,3.53
2022-08-30T13:52:40.379Z,3.83
2022-08-30T13:56:39.810Z,3.85
2022-08-30T14:00:40.796Z,3.53
2022-08-30T14:04:40.471Z,3.78
2022-08-30T14:08:53.262Z,3.97
2022-08-30T14:13:02.516Z,4.62
2022-08-30T14:16:41.546Z,3.47
2022-08-30T14:20:40.174Z,3.8
2022-08-30T14:24:40.779Z,4.1
2022-08-30T14:28:40.350Z,2.97
2022-08-30T14:32:39.561Z,3.15
2022-08-30T14:36:40.584Z,3.92
2022-08-30T14:40:41.099Z,2.6
2022-08-30T14:44:55.286Z,2.83
2022-08-30T14:48:39.843Z,2.75
2022-08-30T14:52:41.024Z,2.3
2022-08-30T14:56:40.059Z,4.12
2022-08-30T15:00:41.667Z,2.62
2022-08-30T15:04:39.729Z,2.53
2022-08-30T15:08:40.039Z,3
2022-08-30T15:12:40.464Z,3.08
2022-08-30T15:16:40.486Z,3.83
2022-08-30T15:20:40.174Z,2.95
2022-08-30T15:24:40.407Z,4.28
2022-08-30T15:28:40.129Z,2.97
2022-08-30T15:32:40.647Z,4.85
2022-08-30T15:36:39.635Z,2.58
2022-08-30T15:40:40.840Z,2.47
2022-08-30T15:44:40.139Z,2.4
2022-08-30T15:48:45.331Z,3.42
2022-08-30T15:52:41.003Z,2.4
2022-08-30T15:56:40.042Z,2.4
2022-08-30T16:00:44.822Z,2.75
2022-08-30T16:04:40.566Z,2.53
2022-08-30T16:08:40.814Z,4.68
2022-08-30T16:12:40.771Z,2.62
2022-08-30T16:16:41.069Z,3.28
2022-08-30T16:20:41.052Z,2.4
2022-08-30T16:24:41.406Z,2.62
2022-08-30T16:28:40.146Z,2.35
2022-08-30T16:32:40.597Z,3
2022-08-30T16:36:40.395Z,2.67
2022-08-30T16:40:39.585Z,2.3
2022-08-30T16:44:40.644Z,3.28
2022-08-30T16:48:39.875Z,2.65
2022-08-30T16:52:43.928Z,4.28
2022-08-30T16:56:41.278Z,2.83
2022-08-30T17:00:40.927Z,3.03
2022-08-30T17:04:39.948Z,2.15
2022-08-30T17:08:41.025Z,2.12
2022-08-30T17:12:41.434Z,3.08
2022-08-30T17:16:41.289Z,2.6
2022-08-30T17:20:40.106Z,3.15
2022-08-30T17:28:40.591Z,2.17
2022-08-30T17:32:40.663Z,2.78
2022-08-30T17:36:40.956Z,3.53
2022-08-30T17:40:40.551Z,2.75
2022-08-30T17:44:42.101Z,5.07
2022-08-30T17:48:40.596Z,2.85
2022-08-30T17:52:40.478Z,1.67
2022-08-30T17:56:40.456Z,1.8
2022-08-30T18:00:41.038Z,2.42
2022-08-30T18:04:41.655Z,2.53
2022-08-30T18:08:40.665Z,2.42
2022-08-30T18:12:39.794Z,2.55
2022-08-30T18:16:53.183Z,2.6
2022-08-30T18:20:40.871Z,4.87
2022-08-30T18:24:40.519Z,5.85
2022-08-30T18:28:40.502Z,1.8
2022-08-30T18:32:40.419Z,6.37
2022-08-30T18:36:40.363Z,2.78
2022-08-30T18:40:41.016Z,1.95
2022-08-30T18:44:43.572Z,2.15
2022-08-30T18:48:40.798Z,3.28
2022-08-30T18:52:40.891Z,2.72
2022-08-30T18:56:40.506Z,1.77
2022-08-30T19:00:40.536Z,1.65
2022-08-30T19:04:40.849Z,3.53
2022-08-30T19:08:40.484Z,2.4
2022-08-30T19:12:40.613Z,2.7
2022-08-30T19:16:40.560Z,2.55
2022-08-30T19:20:40.722Z,1.05
2022-08-30T19:24:40.956Z,2.37
2022-08-30T19:28:40.381Z,2.97
2022-08-30T19:32:40.901Z,2.58
2022-08-30T19:36:40.486Z,1.02
2022-08-30T19:40:40.577Z,1.58
2022-08-30T19:44:40.591Z,2.75
2022-08-30T19:48:40.828Z,1.05
2022-08-30T19:52:40.542Z,2.05
2022-08-30T19:56:41.313Z,4.28
2022-08-30T20:00:54.119Z,2.03
2022-08-30T20:04:40.815Z,3.8
2022-08-30T20:08:40.210Z,1.1
2022-08-30T20:12:45.428Z,1.5
2022-08-30T20:16:40.595Z,2.67
2022-08-30T20:20:41.007Z,2.17
2022-08-30T20:24:43.739Z,1.17
2022-08-30T20:28:40.598Z,2.6
2022-08-30T20:32:40.439Z,1.2
2022-08-30T20:36:40.572Z,2.85
2022-08-30T20:40:40.784Z,2.08
2022-08-30T20:44:40.550Z,3.35
2022-08-30T20:48:40.418Z,2.87
2022-08-30T20:52:40.480Z,3.6
2022-08-30T20:56:41.212Z,2.15
2022-08-30T21:00:40.498Z,1.95
2022-08-30T21:04:40.617Z,6.6
2022-08-30T21:08:40.415Z,3.9
2022-08-30T21:12:40.515Z,1
2022-08-30T21:16:40.818Z,4.3
2022-08-30T21:20:40.641Z,2.08
2022-08-30T21:24:40.807Z,1.92
2022-08-30T21:28:40.528Z,5.28
2022-08-30T21:32:40.599Z,6.47
2022-08-30T21:36:39.510Z,1.05
2022-08-30T21:40:40.699Z,2.7
2022-08-30T21:44:40.287Z,4.53
2022-08-30T21:48:40.406Z,1.3
2022-08-30T21:52:40.436Z,4.72
2022-08-30T21:56:40.987Z,8.02
2022-08-30T22:00:39.732Z,3.12
2022-08-30T22:04:41.166Z,3.03
2022-08-30T22:08:40.461Z,3.58
2022-08-30T22:12:41.394Z,14.57
2022-08-30T22:16:40.488Z,2.42
2022-08-30T22:20:41.122Z,3.17
2022-08-30T22:24:40.412Z,2.33
2022-08-30T22:28:40.457Z,5.4
2022-08-30T22:32:40.480Z,4.18
2022-08-30T22:36:40.548Z,1.75
2022-08-30T22:40:41.206Z,4.68
2022-08-30T22:44:40.460Z,2.7
2022-08-30T22:48:40.648Z,4.12
2022-08-30T22:52:40.405Z,5.18
2022-08-30T22:56:40.512Z,2
2022-08-30T23:00:40.502Z,2.92
2022-08-30T23:04:40.623Z,3.8
2022-08-30T23:08:40.656Z,1.3
2022-08-30T23:12:40.373Z,2.92
2022-08-30T23:16:41.061Z,1.05
2022-08-30T23:20:40.398Z,3.1
2022-08-30T23:24:40.458Z,1.73
2022-08-30T23:28:40.472Z,3
2022-08-30T23:32:40.490Z,1.52
2022-08-30T23:36:40.690Z,5.53
2022-08-30T23:40:40.573Z,3.03
2022-08-30T23:44:40.649Z,3.65
2022-08-30T23:48:39.287Z,1.48
2022-08-30T23:52:40.590Z,2.05
2022-08-30T23:56:41.106Z,1.33
